Time;durP1;ratioP1;P1;durP2;ratioP2;P2;SDS_P1;SDS_P2;PMS_P1;PMS_P2;Temp;Humidity;BMP_temperature;BMP_pressure;BME280_temperature;BME280_humidity;BME280_pressure;Samples;Min_cycle;Max_cycle;Signal;HPM_P1;HPM_P2
2022/06/22 00:00:00;;;;;;;13.88;5.97;;;16.80;92.90;;;;;;4913555;29;20059;-73
2022/06/22 00:02:34;;;;;;;13.70;6.60;;;16.80;92.80;;;;;;4928236;29;20032;-74
2022/06/22 00:05:23;;;;;;;14.60;5.97;;;16.80;92.80;;;;;;4912725;29;20062;-73
2022/06/22 00:07:55;;;;;;;11.20;4.93;;;16.80;92.80;;;;;;4914744;29;20051;-73
2022/06/22 00:10:37;;;;;;;10.82;4.38;;;16.80;92.80;;;;;;4917434;29;20063;-74
2022/06/22 00:13:14;;;;;;;14.23;5.05;;;16.80;92.80;;;;;;4913501;29;20036;-74
2022/06/22 00:15:48;;;;;;;11.05;5.45;;;16.80;92.80;;;;;;4908820;29;20048;-73
2022/06/22 00:18:34;;;;;;;7.97;5.18;;;16.80;92.80;;;;;;4910847;29;20068;-73
2022/06/22 00:21:15;;;;;;;9.00;4.55;;;16.80;92.70;;;;;;4913171;29;20034;-74
2022/06/22 00:23:44;;;;;;;9.98;4.28;;;16.80;92.70;;;;;;4914298;29;20072;-73
2022/06/22 00:26:19;;;;;;;9.75;5.00;;;16.80;92.60;;;;;;4918526;29;20052;-73
2022/06/22 00:28:52;;;;;;;;;;;16.80;92.60;;;;;;4917206;29;20084;-73
2022/06/22 00:31:57;;;;;;;5.88;3.92;;;16.80;92.60;;;;;;4916962;29;19911;-73
2022/06/22 00:34:26;;;;;;;11.60;5.25;;;16.80;92.60;;;;;;4912315;29;20440;-74
2022/06/22 00:37:00;;;;;;;15.05;5.55;;;16.80;92.50;;;;;;4915700;29;20383;-74
2022/06/22 00:39:32;;;;;;;11.10;5.15;;;16.80;92.50;;;;;;4918806;29;20044;-74
2022/06/22 00:42:16;;;;;;;8.77;4.75;;;16.80;92.50;;;;;;4917752;29;20211;-74
2022/06/22 00:45:03;;;;;;;14.02;6.13;;;16.80;92.60;;;;;;4917098;29;20043;-74
2022/06/22 00:47:41;;;;;;;25.35;8.15;;;16.80;92.60;;;;;;4915024;29;20036;-72
2022/06/22 00:50:22;;;;;;;25.92;13.52;;;16.70;92.70;;;;;;4920959;29;20036;-72
2022/06/22 00:53:08;;;;;;;22.52;14.07;;;16.80;92.90;;;;;;4915913;29;20127;-72
2022/06/22 00:55:39;;;;;;;17.80;10.57;;;16.80;93.10;;;;;;4921656;29;20039;-73
2022/06/22 00:58:38;;;;;;;21.38;11.07;;;16.80;93.20;;;;;;4917108;29;20028;-73
2022/06/22 01:01:07;;;;;;;19.10;7.20;;;16.80;93.20;;;;;;4930663;29;20059;-72
2022/06/22 01:03:41;;;;;;;28.95;8.40;;;16.80;93.30;;;;;;4916072;29;20036;-73
2022/06/22 01:06:25;;;;;;;13.15;8.18;;;16.80;93.30;;;;;;4919175;29;20036;-73
2022/06/22 01:09:16;;;;;;;13.68;7.18;;;16.80;93.30;;;;;;4915790;29;20518;-73
2022/06/22 01:12:25;;;;;;;12.82;7.35;;;16.80;93.20;;;;;;4913441;29;20483;-73
2022/06/22 01:15:16;;;;;;;11.52;6.93;;;16.80;93.20;;;;;;4947223;28;20446;-73
2022/06/22 01:18:12;;;;;;;14.88;7.53;;;16.70;93.20;;;;;;4916804;29;20520;-73
2022/06/22 01:21:10;;;;;;;21.27;8.40;;;16.70;93.20;;;;;;4916382;29;20035;-74
2022/06/22 01:23:52;;;;;;;16.52;7.65;;;16.70;93.20;;;;;;4914430;29;20039;-73
2022/06/22 01:27:09;;;;;;;14.27;7.95;;;16.70;93.20;;;;;;4920746;29;20043;-74
2022/06/22 01:29:44;;;;;;;15.07;8.05;;;16.70;93.20;;;;;;4916629;29;20067;-73
2022/06/22 01:32:25;;;;;;;14.15;9.13;;;16.70;93.20;;;;;;4914058;29;20115;-73
2022/06/22 01:34:57;;;;;;;16.73;8.57;;;16.70;93.20;;;;;;4918296;29;20114;-73
2022/06/22 01:37:30;;;;;;;21.92;8.60;;;16.70;93.30;;;;;;4916742;29;20049;-73
2022/06/22 01:40:20;;;;;;;17.17;9.98;;;16.70;93.40;;;;;;4914648;29;20035;-73
2022/06/22 01:42:53;;;;;;;21.02;10.18;;;16.70;93.40;;;;;;4916254;29;20067;-73
2022/06/22 01:45:28;;;;;;;16.70;9.65;;;16.70;93.40;;;;;;4917725;29;20075;-73
2022/06/22 01:48:17;;;;;;;19.90;10.00;;;16.70;93.40;;;;;;4916130;29;20510;-73
2022/06/22 01:51:28;;;;;;;21.83;9.25;;;16.70;93.40;;;;;;4924006;29;20487;-73
2022/06/22 01:54:18;;;;;;;23.02;8.98;;;16.70;93.40;;;;;;4915337;29;20051;-73
2022/06/22 01:56:57;;;;;;;18.48;9.02;;;16.70;93.40;;;;;;4913995;29;20030;-73
2022/06/22 01:59:50;;;;;;;19.48;8.88;;;16.60;93.30;;;;;;4915215;29;20026;-72
2022/06/22 02:02:31;;;;;;;15.65;8.40;;;16.60;93.30;;;;;;4916289;29;20044;-73
2022/06/22 02:05:08;;;;;;;19.80;9.27;;;16.60;93.40;;;;;;4914639;29;20032;-73
2022/06/22 02:07:46;;;;;;;24.17;7.13;;;16.60;93.40;;;;;;4914552;29;20024;-74
2022/06/22 02:10:27;;;;;;;18.23;8.55;;;16.60;93.50;;;;;;4917865;29;20031;-74
2022/06/22 02:13:09;;;;;;;18.42;8.15;;;16.60;93.50;;;;;;4913064;29;20026;-73
2022/06/22 02:15:52;;;;;;;19.02;8.18;;;16.60;93.50;;;;;;4915770;29;20048;-73
2022/06/22 02:18:35;;;;;;;20.98;9.30;;;16.60;93.50;;;;;;4913729;29;20028;-73
2022/06/22 02:21:31;;;;;;;15.70;7.63;;;16.50;93.40;;;;;;4920003;29;20028;-73
2022/06/22 02:24:10;;;;;;;14.90;7.70;;;16.50;93.40;;;;;;4915985;29;20028;-72
2022/06/22 02:26:54;;;;;;;24.80;8.38;;;16.50;93.40;;;;;;4913992;29;20071;-73
2022/06/22 02:29:32;;;;;;;17.27;9.15;;;16.50;93.50;;;;;;4913602;29;20384;-73
2022/06/22 02:32:04;;;;;;;26.83;8.40;;;16.60;93.60;;;;;;4914915;29;20476;-73
2022/06/22 02:34:34;;;;;;;18.23;8.25;;;16.60;93.60;;;;;;4915583;29;20024;-73
2022/06/22 02:37:04;;;;;;;21.25;7.93;;;16.50;93.50;;;;;;4913475;29;20078;-72
2022/06/22 02:39:34;;;;;;;17.58;9.23;;;16.50;93.50;;;;;;4914027;29;20028;-71
2022/06/22 02:44:49;;;;;;;25.73;12.32;;;16.50;93.70;;;;;;4915424;29;20047;-72
2022/06/22 02:47:32;;;;;;;17.98;10.07;;;16.50;93.60;;;;;;4916141;29;20859;-73
2022/06/22 02:50:19;;;;;;;18.27;8.98;;;16.50;93.60;;;;;;4919248;29;20047;-73
2022/06/22 02:53:13;;;;;;;13.75;7.90;;;16.50;93.60;;;;;;4915699;29;20051;-74
2022/06/22 02:55:39;;;;;;;18.67;8.85;;;16.50;93.50;;;;;;4918198;29;20024;-73
2022/06/22 02:58:34;;;;;;;19.75;9.23;;;16.50;93.50;;;;;;4914362;29;20036;-72
2022/06/22 03:01:15;;;;;;;18.92;8.15;;;16.50;93.60;;;;;;4913422;29;20465;-73
2022/06/22 03:03:52;;;;;;;19.02;8.60;;;16.50;93.60;;;;;;4913905;29;20412;-72
2022/06/22 03:06:25;;;;;;;23.65;9.52;;;16.50;93.60;;;;;;4917372;29;20040;-73
2022/06/22 03:08:53;;;;;;;12.90;8.80;;;16.50;93.60;;;;;;4916079;29;20411;-73
2022/06/22 03:11:20;;;;;;;18.88;8.60;;;16.50;93.60;;;;;;4913742;29;20594;-73
2022/06/22 03:14:10;;;;;;;15.02;8.18;;;16.50;93.60;;;;;;4911789;29;20021;-72
2022/06/22 03:16:40;;;;;;;17.75;9.13;;;16.50;93.60;;;;;;4917291;29;20095;-73
2022/06/22 03:19:13;;;;;;;21.60;8.63;;;16.50;93.60;;;;;;4946729;28;20028;-73
2022/06/22 03:21:41;;;;;;;17.60;10.40;;;16.40;93.50;;;;;;4910553;29;20032;-73
2022/06/22 03:24:34;;;;;;;29.17;10.77;;;16.50;93.60;;;;;;4913922;29;20058;-72
2022/06/22 03:27:17;;;;;;;24.48;10.40;;;16.50;93.70;;;;;;4911478;29;20504;-73
2022/06/22 03:29:57;;;;;;;25.40;10.70;;;16.50;93.60;;;;;;4912550;29;20038;-73
2022/06/22 03:32:41;;;;;;;23.67;10.48;;;16.50;93.50;;;;;;4913888;29;20020;-73
2022/06/22 03:35:26;;;;;;;27.95;11.38;;;16.40;93.30;;;;;;4911965;29;20036;-73
2022/06/22 03:38:04;;;;;;;;;;;16.40;93.20;;;;;;4917663;29;20060;-73
2022/06/22 03:40:47;;;;;;;29.27;12.73;;;16.30;93.20;;;;;;4913675;29;19977;-73
2022/06/22 03:43:39;;;;;;;26.42;12.07;;;16.40;93.50;;;;;;4908052;29;20068;-73
2022/06/22 03:46:40;;;;;;;25.35;12.50;;;16.40;93.70;;;;;;4912238;29;20558;-72
2022/06/22 03:49:20;;;;;;;20.20;11.68;;;16.40;93.70;;;;;;4912946;29;20127;-72
2022/06/22 03:52:02;;;;;;;27.63;13.07;;;16.30;93.70;;;;;;4909608;29;20290;-73
2022/06/22 03:54:35;;;;;;;27.77;13.75;;;16.30;93.80;;;;;;4914038;29;20524;-73
2022/06/22 03:57:07;;;;;;;28.48;12.05;;;16.30;93.80;;;;;;4909072;29;20024;-74
2022/06/22 03:59:38;;;;;;;22.77;12.95;;;16.30;93.80;;;;;;4913112;29;20571;-75
2022/06/22 04:02:05;;;;;;;23.40;13.25;;;16.30;93.70;;;;;;4912656;29;20039;-71
2022/06/22 04:04:33;;;;;;;22.67;13.13;;;16.30;93.60;;;;;;4914645;29;20495;-72
2022/06/22 04:07:00;;;;;;;18.55;10.45;;;16.30;93.60;;;;;;4918364;29;20031;-72
2022/06/22 04:09:28;;;;;;;25.02;11.63;;;16.30;93.50;;;;;;4911440;29;20024;-71
2022/06/22 04:12:11;;;;;;;49.70;30.75;;;16.30;93.40;;;;;;4917201;29;20036;-71
2022/06/22 04:15:08;;;;;;;58.00;34.08;;;16.30;93.70;;;;;;4910344;29;20024;-70
2022/06/22 04:17:39;;;;;;;35.72;24.65;;;16.30;93.80;;;;;;4912565;29;20554;-73
2022/06/22 04:20:53;;;;;;;36.60;18.95;;;16.30;93.80;;;;;;4912796;29;20083;-73
2022/06/22 04:23:34;;;;;;;30.02;14.93;;;16.30;93.70;;;;;;4913345;29;20122;-71
2022/06/22 04:26:09;;;;;;;26.10;12.25;;;16.30;93.70;;;;;;4912915;29;20542;-71
2022/06/22 04:28:38;;;;;;;;;;;16.20;93.60;;;;;;4917132;29;20499;-74
2022/06/22 04:31:07;;;;;;;23.08;12.05;;;16.20;93.60;;;;;;4913548;29;19911;-71
2022/06/22 04:33:44;;;;;;;21.33;11.20;;;16.20;93.50;;;;;;4914341;29;20095;-71
2022/06/22 04:36:43;;;;;;;21.85;11.52;;;16.20;93.50;;;;;;4909631;29;20111;-72
2022/06/22 04:39:19;;;;;;;21.42;10.82;;;16.20;93.60;;;;;;4911542;28;20071;-69
2022/06/22 04:41:47;;;;;;;25.67;10.65;;;16.20;93.70;;;;;;4910954;29;20059;-73
2022/06/22 04:44:18;;;;;;;29.10;11.40;;;16.20;93.80;;;;;;4911835;29;20376;-71
2022/06/22 04:46:57;;;;;;;18.42;9.57;;;16.20;93.80;;;;;;4913584;29;20175;-72
2022/06/22 04:49:31;;;;;;;18.75;9.57;;;16.20;93.70;;;;;;4912471;29;20580;-71
2022/06/22 04:52:21;;;;;;;18.07;9.23;;;16.20;93.60;;;;;;4914750;29;20028;-71
2022/06/22 04:54:52;;;;;;;12.48;9.13;;;16.20;93.60;;;;;;4914477;29;20032;-71
2022/06/22 04:57:26;;;;;;;13.30;7.47;;;16.20;93.50;;;;;;4914633;29;20028;-71
2022/06/22 04:59:54;;;;;;;14.88;7.75;;;16.30;93.50;;;;;;4914388;29;20036;-71
2022/06/22 05:02:24;;;;;;;14.95;7.43;;;16.20;93.50;;;;;;4914042;29;20059;-71
2022/06/22 05:04:59;;;;;;;15.52;8.52;;;16.20;93.50;;;;;;4912899;29;20036;-71
2022/06/22 05:07:50;;;;;;;9.52;7.15;;;16.20;93.50;;;;;;4912806;29;20103;-71
2022/06/22 05:10:44;;;;;;;12.70;7.93;;;16.20;93.50;;;;;;4911079;29;20045;-71
2022/06/22 05:13:19;;;;;;;14.18;7.43;;;16.20;93.40;;;;;;4915724;29;20036;-71
2022/06/22 05:16:26;;;;;;;13.80;7.25;;;16.20;93.40;;;;;;4914286;29;20400;-71
2022/06/22 05:19:32;;;;;;;14.57;7.40;;;16.20;93.30;;;;;;4917232;29;20059;-71
2022/06/22 05:22:38;;;;;;;12.25;7.10;;;16.20;93.20;;;;;;4914538;29;20039;-71
2022/06/22 05:25:44;;;;;;;25.60;7.60;;;16.20;93.20;;;;;;4915399;29;20520;-71
2022/06/22 05:28:30;;;;;;;12.90;7.93;;;16.10;92.90;;;;;;4914999;29;20040;-71
2022/06/22 05:31:45;;;;;;;14.02;8.07;;;16.10;92.80;;;;;;4916810;29;20083;-71
2022/06/22 05:34:51;;;;;;;18.95;9.23;;;16.10;92.70;;;;;;4915627;29;20087;-71
2022/06/22 05:37:57;;;;;;;17.58;8.77;;;16.10;92.60;;;;;;4915439;29;20119;-70
2022/06/22 05:41:04;;;;;;;11.75;7.53;;;16.00;92.50;;;;;;4920342;29;20079;-71
2022/06/22 05:44:13;;;;;;;14.82;8.48;;;16.00;92.40;;;;;;4916211;29;20040;-71
2022/06/22 05:47:19;;;;;;;12.60;8.40;;;16.00;92.20;;;;;;4913596;29;20044;-71
2022/06/22 05:50:27;;;;;;;14.90;8.43;;;16.00;92.10;;;;;;4915090;29;20032;-71
2022/06/22 05:53:19;;;;;;;17.30;8.43;;;15.90;92.00;;;;;;4914290;29;20530;-71
2022/06/22 05:56:05;;;;;;;24.80;9.63;;;15.90;91.90;;;;;;4913293;29;20491;-71
2022/06/22 05:58:37;;;;;;;19.25;8.55;;;15.90;91.80;;;;;;4929788;28;20041;-71
2022/06/22 06:01:27;;;;;;;13.88;8.05;;;15.90;91.80;;;;;;4915431;29;20484;-71
2022/06/22 06:04:25;;;;;;;13.88;8.02;;;15.90;91.70;;;;;;4915812;29;20480;-70
2022/06/22 06:07:31;;;;;;;15.00;8.13;;;15.90;91.60;;;;;;4918626;29;20072;-71
2022/06/22 06:10:37;;;;;;;11.82;8.00;;;15.90;91.50;;;;;;4914888;29;20024;-71
2022/06/22 06:13:43;;;;;;;12.75;7.90;;;15.80;91.50;;;;;;4915077;29;20039;-71
2022/06/22 06:16:49;;;;;;;13.35;8.98;;;15.90;91.50;;;;;;4910945;29;20048;-71
2022/06/22 06:19:55;;;;;;;12.30;8.20;;;15.80;91.40;;;;;;4919365;29;20043;-71
2022/06/22 06:23:01;;;;;;;19.85;10.15;;;15.80;91.40;;;;;;4918114;29;20036;-71
2022/06/22 06:29:56;;;;;;;15.95;8.52;;;15.80;91.30;;;;;;4913979;29;20035;-71
2022/06/22 06:32:55;;;;;;;14.45;8.02;;;15.80;91.30;;;;;;4915457;29;20032;-71
2022/06/22 06:35:31;;;;;;;14.50;8.15;;;15.80;91.20;;;;;;4913990;29;20044;-71
2022/06/22 06:38:40;;;;;;;11.85;8.05;;;15.70;91.10;;;;;;4918536;29;20028;-71
2022/06/22 06:41:31;;;;;;;15.50;8.70;;;15.70;91.10;;;;;;4914210;29;20040;-71
2022/06/22 06:44:37;;;;;;;17.90;9.32;;;15.70;91.00;;;;;;4917671;29;20035;-71
2022/06/22 06:47:44;;;;;;;18.85;8.38;;;15.70;91.10;;;;;;4913620;29;20063;-71
2022/06/22 06:50:55;;;;;;;14.02;8.57;;;15.70;91.10;;;;;;4912917;29;20036;-71
2022/06/22 06:54:02;;;;;;;14.18;10.20;;;15.70;91.20;;;;;;4913578;29;20036;-71
2022/06/22 06:57:17;;;;;;;15.15;10.15;;;15.70;91.20;;;;;;4914629;29;20051;-71
2022/06/22 07:00:23;;;;;;;20.88;11.30;;;15.70;91.30;;;;;;4917295;29;20470;-71
2022/06/22 07:03:36;;;;;;;20.75;12.63;;;15.70;91.30;;;;;;4912762;29;20032;-72
2022/06/22 07:06:42;;;;;;;19.13;11.60;;;15.70;91.40;;;;;;4919444;29;20399;-71
2022/06/22 07:09:51;;;;;;;15.57;11.05;;;15.70;91.50;;;;;;4914051;29;20032;-71
2022/06/22 07:12:46;;;;;;;16.35;11.23;;;15.70;91.50;;;;;;4912602;29;20115;-71
2022/06/22 07:15:55;;;;;;;16.10;11.82;;;15.70;91.60;;;;;;4911631;29;20044;-71
2022/06/22 07:19:23;;;;;;;22.20;10.77;;;15.70;91.60;;;;;;4910608;29;20039;-71
2022/06/22 07:22:12;;;;;;;29.23;10.13;;;15.70;91.70;;;;;;4911835;29;20492;-71
2022/06/22 07:25:01;;;;;;;18.15;11.60;;;15.80;92.00;;;;;;4913767;29;20032;-71
2022/06/22 07:27:59;;;;;;;17.77;9.50;;;15.80;92.10;;;;;;4914282;29;20031;-72
2022/06/22 07:30:54;;;;;;;15.25;10.27;;;15.80;92.20;;;;;;4914128;29;20373;-71
2022/06/22 07:34:19;;;;;;;24.95;12.07;;;15.80;92.30;;;;;;4910924;29;20061;-71
2022/06/22 07:37:28;;;;;;;21.60;10.52;;;15.90;92.40;;;;;;4914739;29;20060;-71
2022/06/22 07:41:18;;;;;;;17.75;10.43;;;15.90;92.50;;;;;;4911840;29;20134;-71
2022/06/22 07:44:06;;;;;;;14.73;10.40;;;15.90;92.60;;;;;;4913719;29;20099;-71
2022/06/22 07:47:08;;;;;;;20.25;10.15;;;16.00;92.70;;;;;;4912389;29;20051;-71
2022/06/22 07:50:07;;;;;;;19.13;11.90;;;16.00;92.80;;;;;;4908837;29;20036;-71
2022/06/22 07:53:13;;;;;;;23.38;11.40;;;16.00;92.80;;;;;;4916455;29;20050;-71
2022/06/22 07:56:28;;;;;;;18.33;11.95;;;16.10;92.90;;;;;;4918315;28;20055;-71
2022/06/22 07:59:34;;;;;;;13.93;11.50;;;16.10;92.90;;;;;;4913145;29;20435;-71
2022/06/22 08:02:40;;;;;;;16.63;10.90;;;16.10;92.90;;;;;;4913440;29;20020;-72
2022/06/22 08:05:46;;;;;;;26.58;12.57;;;16.20;92.90;;;;;;4913375;29;20032;-71
2022/06/22 08:08:53;;;;;;;18.15;12.45;;;16.20;92.90;;;;;;4912736;29;20039;-71
2022/06/22 08:12:18;;;;;;;20.83;14.60;;;16.20;93.00;;;;;;4911812;29;20107;-71
2022/06/22 08:15:24;;;;;;;13.82;10.80;;;16.30;93.10;;;;;;4913725;29;20119;-71
2022/06/22 08:18:30;;;;;;;21.17;13.32;;;16.30;93.10;;;;;;4912876;29;20491;-72
2022/06/22 08:21:36;;;;;;;21.08;13.45;;;16.40;93.30;;;;;;4912180;29;20086;-71
2022/06/22 08:24:42;;;;;;;17.10;13.07;;;16.50;93.50;;;;;;4913471;29;20024;-71
2022/06/22 08:27:48;;;;;;;14.48;12.00;;;16.50;93.80;;;;;;4916195;29;20108;-71
2022/06/22 08:30:55;;;;;;;28.92;13.40;;;16.60;93.60;;;;;;4911609;29;20579;-71
2022/06/22 08:34:07;;;;;;;21.33;13.00;;;16.70;93.60;;;;;;4911217;29;20067;-72
2022/06/22 08:36:56;;;;;;;17.65;12.35;;;16.70;93.40;;;;;;4913415;29;20040;-71
2022/06/22 08:40:05;;;;;;;20.55;12.40;;;16.70;93.40;;;;;;4913128;29;20046;-71
2022/06/22 08:43:00;;;;;;;25.08;12.90;;;16.70;93.30;;;;;;4915232;29;20439;-71
2022/06/22 08:45:51;;;;;;;18.37;13.00;;;16.70;93.40;;;;;;4914218;29;20043;-72
2022/06/22 08:48:46;;;;;;;20.55;13.00;;;16.80;93.60;;;;;;4917431;29;20336;-71
2022/06/22 08:51:51;;;;;;;22.48;12.77;;;16.90;93.70;;;;;;4915931;29;20050;-72
2022/06/22 08:55:15;;;;;;;19.17;12.80;;;16.90;93.80;;;;;;4932558;29;20031;-72
2022/06/22 08:58:18;;;;;;;27.58;12.88;;;17.00;93.70;;;;;;4914034;29;20032;-72
2022/06/22 09:01:10;;;;;;;22.02;12.60;;;17.00;93.80;;;;;;4915765;29;20040;-72
2022/06/22 09:03:52;;;;;;;16.02;13.13;;;17.10;93.70;;;;;;4914114;29;20043;-71
2022/06/22 09:06:34;;;;;;;14.73;12.27;;;17.10;93.60;;;;;;4914174;29;20048;-72
2022/06/22 09:09:54;;;;;;;16.67;12.52;;;17.20;93.50;;;;;;4916017;29;20119;-72
2022/06/22 09:12:58;;;;;;;15.65;11.98;;;17.20;93.40;;;;;;4917524;29;20047;-72
2022/06/22 09:16:12;;;;;;;20.45;13.05;;;17.20;93.30;;;;;;4920501;29;20051;-71
2022/06/22 09:19:01;;;;;;;19.15;12.70;;;17.30;93.30;;;;;;4914057;29;20032;-72
2022/06/22 09:21:50;;;;;;;19.17;11.38;;;17.30;93.30;;;;;;4913690;29;20506;-71
2022/06/22 09:25:02;;;;;;;17.80;11.45;;;17.40;93.20;;;;;;4916055;29;20043;-72
2022/06/22 09:27:56;;;;;;;22.05;12.38;;;17.40;93.20;;;;;;4914963;29;20050;-71
2022/06/22 09:30:44;;;;;;;19.55;12.20;;;17.50;93.00;;;;;;4914565;29;20387;-72
2022/06/22 09:33:50;;;;;;;17.23;11.95;;;17.60;92.90;;;;;;4912057;29;20127;-72
2022/06/22 09:37:03;;;;;;;18.35;11.23;;;17.60;92.70;;;;;;4916402;29;20502;-72
2022/06/22 09:39:32;;;;;;;19.55;12.73;;;17.60;92.60;;;;;;4913946;29;20039;-72
2022/06/22 09:42:24;;;;;;;19.35;13.05;;;17.60;92.50;;;;;;4914329;29;20033;-72
2022/06/22 09:45:18;;;;;;;19.77;14.20;;;17.70;92.40;;;;;;4917781;29;20028;-72
2022/06/22 09:48:03;;;;;;;25.42;15.27;;;17.80;92.40;;;;;;4914447;29;20052;-72
2022/06/22 09:50:35;;;;;;;22.57;15.57;;;17.80;92.30;;;;;;4912370;29;20756;-72
2022/06/22 09:53:39;;;;;;;16.77;13.18;;;17.90;92.30;;;;;;4914185;29;20310;-72
2022/06/22 09:56:27;;;;;;;22.20;15.45;;;17.90;91.90;;;;;;4918027;29;20012;-72
2022/06/22 09:59:19;;;;;;;22.58;14.55;;;18.00;91.80;;;;;;4915306;29;20168;-72
2022/06/22 10:02:24;;;;;;;16.88;13.55;;;18.00;91.40;;;;;;4928247;28;20121;-72
2022/06/22 10:04:56;;;;;;;21.50;16.17;;;18.10;91.10;;;;;;4941589;28;20816;-72
2022/06/22 10:07:59;;;;;;;26.92;17.33;;;18.10;90.80;;;;;;4912618;29;20032;-73
2022/06/22 10:10:50;;;;;;;29.58;19.90;;;18.20;90.80;;;;;;4916898;29;20566;-72
2022/06/22 10:13:38;;;;;;;23.73;18.67;;;18.30;90.90;;;;;;4914314;29;20393;-72
2022/06/22 10:16:24;;;;;;;33.40;18.73;;;18.40;90.90;;;;;;4914888;29;20469;-72
2022/06/22 10:19:24;;;;;;;26.98;20.90;;;18.40;90.80;;;;;;4914825;28;20028;-73
2022/06/22 10:22:29;;;;;;;30.80;20.38;;;18.50;90.80;;;;;;4915279;29;20535;-72
2022/06/22 10:25:27;;;;;;;29.70;20.15;;;18.50;91.00;;;;;;4913947;29;20040;-72
2022/06/22 10:28:08;;;;;;;37.80;20.20;;;18.60;90.60;;;;;;4920817;29;20047;-72
2022/06/22 10:31:11;;;;;;;32.05;20.20;;;18.70;90.40;;;;;;4915020;29;20019;-72
2022/06/22 10:34:13;;;;;;;27.05;17.35;;;18.70;90.20;;;;;;4916101;29;20056;-72
2022/06/22 10:37:14;;;;;;;23.13;15.63;;;18.80;90.10;;;;;;4930297;28;20071;-73
2022/06/22 10:40:09;;;;;;;24.88;15.82;;;18.80;89.60;;;;;;4925376;29;20440;-72
2022/06/22 10:46:17;;;;;;;19.13;11.77;;;18.80;88.50;;;;;;4915450;29;20522;-72
2022/06/22 10:48:56;;;;;;;14.52;10.68;;;18.90;88.20;;;;;;4914524;29;20107;-72
2022/06/22 10:52:05;;;;;;;15.88;11.07;;;18.90;87.80;;;;;;4914176;29;20090;-72
2022/06/22 10:55:01;;;;;;;21.42;9.77;;;18.90;87.10;;;;;;4920037;29;20101;-72
2022/06/22 10:57:58;;;;;;;16.67;10.93;;;18.90;86.50;;;;;;4915211;29;20111;-73
2022/06/22 11:00:39;;;;;;;16.85;11.68;;;19.00;86.40;;;;;;4912382;29;20098;-72
2022/06/22 11:03:18;;;;;;;19.40;9.75;;;19.00;86.00;;;;;;4915267;29;20028;-72
2022/06/22 11:06:00;;;;;;;17.30;10.88;;;19.10;85.90;;;;;;4909875;29;20418;-72
2022/06/22 11:08:35;;;;;;;17.35;10.18;;;19.10;85.60;;;;;;4913848;29;20028;-72
2022/06/22 11:11:23;;;;;;;17.95;10.55;;;19.20;85.40;;;;;;4912164;29;20562;-72
2022/06/22 11:13:53;;;;;;;16.02;10.45;;;19.20;85.00;;;;;;4912952;29;20070;-72
2022/06/22 11:16:22;;;;;;;20.15;11.27;;;19.30;84.70;;;;;;4914617;29;20052;-72
2022/06/22 11:19:10;;;;;;;14.48;9.48;;;19.30;84.10;;;;;;4913240;29;20083;-72
2022/06/22 11:22:01;;;;;;;15.10;8.13;;;19.30;83.90;;;;;;4914295;29;20491;-72
2022/06/22 11:24:46;;;;;;;10.70;8.00;;;19.40;83.70;;;;;;4913280;29;20432;-72
2022/06/22 11:30:58;;;;;;;12.15;8.52;;;19.40;83.00;;;;;;4915132;29;20529;-72
2022/06/22 11:33:56;;;;;;;9.30;7.18;;;19.40;82.80;;;;;;4915755;29;20040;-72
2022/06/22 11:36:50;;;;;;;12.05;6.95;;;19.50;82.40;;;;;;4913104;29;20393;-72
2022/06/22 11:39:35;;;;;;;8.13;6.30;;;19.60;82.10;;;;;;4914663;29;20024;-72
2022/06/22 11:42:34;;;;;;;11.63;6.40;;;19.60;81.80;;;;;;4918842;29;20055;-72
2022/06/22 11:45:54;;;;;;;12.88;6.25;;;19.60;81.70;;;;;;4911189;29;20436;-72
2022/06/22 11:49:06;;;;;;;9.38;6.30;;;19.70;81.20;;;;;;4916540;29;20036;-72
2022/06/22 11:51:35;;;;;;;7.10;5.72;;;19.70;80.80;;;;;;4913495;29;20111;-72
2022/06/22 11:54:33;;;;;;;8.13;5.75;;;19.80;80.30;;;;;;4916077;29;20012;-72
2022/06/22 11:57:19;;;;;;;8.18;5.13;;;19.80;80.00;;;;;;4913108;29;20111;-73
2022/06/22 12:00:10;;;;;;;8.55;5.20;;;19.90;79.60;;;;;;4921680;29;20115;-72
2022/06/22 12:03:15;;;;;;;9.65;4.88;;;19.90;78.90;;;;;;4913712;29;20123;-72
2022/06/22 12:06:13;;;;;;;10.68;4.68;;;20.00;78.60;;;;;;4909162;29;20077;-72
2022/06/22 12:09:06;;;;;;;5.97;4.70;;;20.00;78.30;;;;;;4917592;29;20400;-72
2022/06/22 12:11:58;;;;;;;6.57;4.63;;;20.00;78.20;;;;;;4911830;29;20024;-73
2022/06/22 12:15:05;;;;;;;13.90;5.50;;;20.10;78.20;;;;;;4912821;29;20496;-72
2022/06/22 12:18:01;;;;;;;9.88;5.30;;;20.10;78.10;;;;;;4913475;29;20048;-72
2022/06/22 12:20:56;;;;;;;14.63;6.00;;;20.10;78.00;;;;;;4911630;29;20047;-72
2022/06/22 12:24:00;;;;;;;9.07;4.90;;;20.20;78.30;;;;;;4913688;29;20396;-73
2022/06/22 12:26:42;;;;;;;7.78;5.70;;;20.30;78.40;;;;;;4914662;29;20043;-72
2022/06/22 12:29:30;;;;;;;11.25;5.95;;;20.30;78.20;;;;;;4917274;29;20031;-72
2022/06/22 12:32:46;;;;;;;9.60;6.38;;;20.30;78.20;;;;;;4913888;29;20020;-72
2022/06/22 12:35:37;;;;;;;10.65;6.22;;;20.40;77.90;;;;;;4911644;29;20506;-72
2022/06/22 12:38:46;;;;;;;7.25;6.20;;;20.40;77.70;;;;;;4917351;29;20020;-73
2022/06/22 12:41:31;;;;;;;7.30;5.60;;;20.40;77.50;;;;;;4915901;29;20547;-72
2022/06/22 12:44:19;;;;;;;8.35;5.55;;;20.40;77.50;;;;;;4916692;29;20114;-73
2022/06/22 12:46:54;;;;;;;8.93;5.43;;;20.40;77.30;;;;;;4913738;29;20044;-73
2022/06/22 12:49:51;;;;;;;8.85;6.32;;;20.50;76.70;;;;;;4916745;29;20103;-73
2022/06/22 12:52:29;;;;;;;6.50;4.75;;;20.40;76.50;;;;;;4915789;29;20083;-73
2022/06/22 12:55:25;;;;;;;9.95;5.32;;;20.40;76.30;;;;;;4920979;29;20106;-73
2022/06/22 12:58:00;;;;;;;7.10;5.30;;;20.40;76.10;;;;;;4916121;29;20518;-73
2022/06/22 13:00:28;;;;;;;6.78;5.57;;;20.40;75.90;;;;;;4921004;29;20031;-73
2022/06/22 13:02:58;;;;;;;11.75;5.70;;;20.40;76.20;;;;;;4917021;29;20051;-72
2022/06/22 13:05:34;;;;;;;10.75;6.22;;;20.40;76.20;;;;;;4916449;29;20048;-73
2022/06/22 13:08:08;;;;;;;11.48;6.13;;;20.40;76.20;;;;;;4916427;29;20028;-73
2022/06/22 13:10:47;;;;;;;12.60;5.95;;;20.40;76.50;;;;;;4915427;29;20012;-73
2022/06/22 13:13:27;;;;;;;8.85;5.47;;;20.40;76.60;;;;;;4917950;29;20118;-72
2022/06/22 13:15:58;;;;;;;9.45;7.10;;;20.40;76.60;;;;;;4914917;29;20046;-72
2022/06/22 13:18:49;;;;;;;10.13;6.68;;;20.40;76.80;;;;;;4916657;29;20025;-73
2022/06/22 13:21:39;;;;;;;12.80;6.50;;;20.40;76.90;;;;;;4918877;29;20651;-73
2022/06/22 13:24:35;;;;;;;12.73;6.85;;;20.40;77.00;;;;;;4921119;29;20087;-72
2022/06/22 13:27:17;;;;;;;9.15;6.65;;;20.40;77.30;;;;;;4914938;29;20579;-73
2022/06/22 13:30:01;;;;;;;10.93;6.65;;;20.40;77.50;;;;;;4913324;29;20071;-73
2022/06/22 13:32:31;;;;;;;9.80;6.72;;;20.30;77.70;;;;;;4919125;29;20024;-73
2022/06/22 13:35:19;;;;;;;11.90;6.55;;;20.30;77.80;;;;;;4916096;29;20024;-73
2022/06/22 13:38:22;;;;;;;12.15;7.13;;;20.40;77.80;;;;;;4915300;29;20013;-73
2022/06/22 13:41:19;;;;;;;15.45;6.90;;;20.30;77.70;;;;;;4914979;29;20645;-72
2022/06/22 13:43:57;;;;;;;12.98;7.50;;;20.30;77.90;;;;;;4915168;29;20048;-73
2022/06/22 13:46:51;;;;;;;13.25;7.72;;;20.30;78.80;;;;;;4913032;29;20488;-73
2022/06/22 13:49:41;;;;;;;18.50;7.72;;;20.30;78.30;;;;;;4914027;29;20080;-73
2022/06/22 13:52:19;;;;;;;16.52;7.47;;;20.20;78.50;;;;;;4915979;29;20118;-73
2022/06/22 13:55:01;;;;;;;13.25;6.97;;;20.20;78.60;;;;;;4918680;29;20488;-73
2022/06/22 13:57:35;;;;;;;12.90;7.32;;;20.20;78.70;;;;;;4915334;29;20032;-73
2022/06/22 14:00:13;;;;;;;12.48;7.57;;;20.20;78.90;;;;;;4915381;29;20024;-73
2022/06/22 14:03:15;;;;;;;12.63;7.10;;;20.20;79.10;;;;;;4913491;29;20079;-73
2022/06/22 14:05:46;;;;;;;15.55;6.38;;;20.20;79.20;;;;;;4957358;28;20052;-73
2022/06/22 14:08:21;;;;;;;16.48;7.18;;;20.10;79.30;;;;;;4913840;29;20027;-73
2022/06/22 17:54:46;;;;;;;16.98;12.13;;;18.40;90.60;;;;;;4987882;27;3542631;-72
2022/06/22 17:57:16;;;;;;;22.63;10.73;;;18.40;90.60;;;;;;5107857;27;20069;-72
2022/06/22 17:59:58;;;;;;;19.27;10.05;;;18.40;90.60;;;;;;5084338;28;20027;-72
2022/06/22 18:02:34;;;;;;;15.93;8.73;;;18.40;90.70;;;;;;5086853;28;20054;-72
2022/06/22 18:05:25;;;;;;;12.70;8.13;;;18.40;90.60;;;;;;5089814;28;20567;-72
2022/06/22 18:07:56;;;;;;;16.20;9.18;;;18.40;90.70;;;;;;5095133;28;20016;-72
2022/06/22 18:10:23;;;;;;;15.98;8.32;;;18.30;90.70;;;;;;5091727;28;20024;-72
2022/06/22 18:12:52;;;;;;;18.25;7.95;;;18.30;90.80;;;;;;5088899;28;20031;-73
2022/06/22 18:15:34;;;;;;;18.92;7.18;;;18.30;90.80;;;;;;5089997;28;20135;-72
2022/06/22 18:18:01;;;;;;;12.27;7.72;;;18.30;90.80;;;;;;5087768;28;20107;-72
2022/06/22 18:20:37;;;;;;;16.52;8.70;;;18.30;90.80;;;;;;5093315;28;20024;-72
2022/06/22 18:23:20;;;;;;;15.63;8.57;;;18.30;90.80;;;;;;5088285;28;20036;-72